Portada
METAR-TAF:

METAR-TAF

Aeroports :

Trang, Tailàndia

latitud: 07-31N, longitud: 099-37E, altitud: 14 m

Observació

L'informe es va fer fa 17 minuts, a les 09:00 UTC
Vent 14 kt del Est/Nord-Est
Temperatura 32°C
Humitat 49%
Pressió 1012 hPa
Visibilitat 10 km o més
Núvols disperses a una alçada de 2500 ft

METAR: VTST 210900Z 07014KT 9999 SCT025 32/20 Q1012 NOSIG

Hora: 16:17 (09:17 UTC)

Pronòstic

L'informe es va fer fa 4 hores i 17 minuts, a les 05:00 UTC
Pronòstic vàlid del 21 a les 06 UTC al 22 a les 06 UTC
Vent 7 kt del Est/Nord-Est
Visibilitat 10 km o més
Núvols disperses a una alçada de 2000 ft
Temporalment
l' 21 a les 06 UTC al 21 a les 12 UTC
Vent 15 kt del Est/Nord-Est amb ràfegues de 25 kt

TAF: VTST 210500Z 2106/2206 06007KT 9999 SCT020 TEMPO 2106/2112 06015G25KT

Observacions i pronòstics meteorològics de més de 4000 aeroports (METAR i TAF).

Les estacions disponibles són els punts grocs i vermells al mapa.

Posi el ratolí al punt desitjat per veure el nom de l'estació.

Feu clic per veure les observacions i els pronòstics meteorològics.

Per canviar el mapa: feu clic els botons verds amb una creu de color negre per apropar; al botó verd amb un guió per allunyar la imatge; o en les fletxes verdes per a mapes adjacents.


METAR-TAF: